»·PEaware :: N107BX KRHV-KSNS

N107BX :: KRHV-KSNS

FLIGHT INFORMATION

Flight Status: Arrived
Operator: Privately registered:
United States
More flights under this callsign
Pilot: Anonymous 18373 (18373)
Aircraft: CESSNA 404 TITAN
(C404)
More flights by this aircraft type
Origin: KRHV Reid-Hillview
United States
Destination: KSNS Salinas Mun
United States
More flights between these airports :: More routes between these airports
Route: SNS
File this flight plan on PilotEdge
Remarks:
Altitude:
(Current/Filed)
7,000ft
Speed:
(Current/Filed)
130kts
Departed: 01-Sep-18 06:29 PM
Arrived: 01-Sep-18 07:07 PM
Distance/Time
Traveled:
41nm/0:38
Distance/Time
To Go:
Arrived

Flight Plot

Page will automatically refresh every two minutes.


Map Options




Map Legend


Flown Route
Filed Route
Departure Airport
Arrival Airport
Navaid (VOR, NDB)
Fix

Horizontal Profiles

Position Reports

Time Latitude Longitude Heading Altitude Ground
Speed
01-Sep-18 17:20 37.336635 -121.818380 251 125ft 0kts
01-Sep-18 17:20 37.336635 -121.818380 251 125ft 0kts
01-Sep-18 17:21 37.336635 -121.818380 251 125ft 0kts
01-Sep-18 17:23 37.336635 -121.818380 251 125ft 0kts
01-Sep-18 17:24 37.336635 -121.818380 251 125ft 0kts
01-Sep-18 17:24 37.336635 -121.818380 251 125ft 0kts
01-Sep-18 17:25 37.336635 -121.818380 251 125ft 0kts
01-Sep-18 17:26 37.336635 -121.818380 251 125ft 0kts
01-Sep-18 17:27 37.336635 -121.818380 251 125ft 0kts
01-Sep-18 17:28 37.336635 -121.818380 251 125ft 0kts
01-Sep-18 17:29 37.336635 -121.818380 251 125ft 0kts
01-Sep-18 17:30 37.336635 -121.818380 251 125ft 0kts
01-Sep-18 17:31 37.336635 -121.818380 251 125ft 0kts
01-Sep-18 17:32 37.336635 -121.818380 251 125ft 0kts
01-Sep-18 17:33 37.336635 -121.818380 251 125ft 0kts
01-Sep-18 17:34 37.336635 -121.818380 251 125ft 0kts
01-Sep-18 17:35 37.336635 -121.818380 251 125ft 0kts
01-Sep-18 17:36 37.336635 -121.818380 251 125ft 0kts
01-Sep-18 17:37 37.336635 -121.818380 251 125ft 0kts
01-Sep-18 17:38 37.336635 -121.818380 251 125ft 0kts
01-Sep-18 17:39 37.336635 -121.818380 251 125ft 0kts
01-Sep-18 17:40 37.336635 -121.818380 251 125ft 0kts
01-Sep-18 17:41 37.336635 -121.818380 251 125ft 0kts
01-Sep-18 17:42 37.336635 -121.818380 251 125ft 0kts
01-Sep-18 17:43 37.336635 -121.818380 251 125ft 0kts
01-Sep-18 17:44 37.336635 -121.818380 251 125ft 0kts
01-Sep-18 17:45 37.336635 -121.818380 251 125ft 0kts
01-Sep-18 17:46 37.336635 -121.818380 251 125ft 0kts
01-Sep-18 17:47 37.336635 -121.818380 251 125ft 0kts
01-Sep-18 17:48 37.336635 -121.818380 251 125ft 0kts
01-Sep-18 17:49 37.336635 -121.818380 251 125ft 0kts
01-Sep-18 17:50 37.336635 -121.818380 251 125ft 0kts
01-Sep-18 17:51 37.336635 -121.818380 251 125ft 0kts
01-Sep-18 17:52 37.336635 -121.818380 251 125ft 0kts
01-Sep-18 17:53 37.336635 -121.818380 251 125ft 0kts
01-Sep-18 17:54 37.336635 -121.818380 251 125ft 0kts
01-Sep-18 17:55 37.336635 -121.818380 251 125ft 0kts
01-Sep-18 17:56 37.336635 -121.818380 251 125ft 0kts
01-Sep-18 17:57 37.336635 -121.818380 251 125ft 0kts
01-Sep-18 17:58 37.336635 -121.818380 251 125ft 0kts
01-Sep-18 18:03 37.336062 -121.818040 351 125ft 0kts
01-Sep-18 18:04 37.336062 -121.818040 351 125ft 0kts
01-Sep-18 18:05 37.336062 -121.818040 351 125ft 0kts
01-Sep-18 18:06 37.336062 -121.818040 351 125ft 0kts
01-Sep-18 18:07 37.336062 -121.818040 351 125ft 0kts
01-Sep-18 18:08 37.336062 -121.818040 351 125ft 0kts
01-Sep-18 18:09 37.336062 -121.818040 351 125ft 0kts
01-Sep-18 18:10 37.336062 -121.818040 351 125ft 0kts
01-Sep-18 18:11 37.336062 -121.818040 351 125ft 0kts
01-Sep-18 18:12 37.336062 -121.818040 351 125ft 0kts
01-Sep-18 18:13 37.336062 -121.818040 351 125ft 0kts
01-Sep-18 18:14 37.336062 -121.818040 351 125ft 0kts
01-Sep-18 18:15 37.336062 -121.818040 351 125ft 0kts
01-Sep-18 18:16 37.336062 -121.818040 351 125ft 0kts
01-Sep-18 18:17 37.336062 -121.818040 351 125ft 0kts
01-Sep-18 18:18 37.336062 -121.818040 351 125ft 0kts
01-Sep-18 18:19 37.336062 -121.818040 351 125ft 0kts
01-Sep-18 18:20 37.336062 -121.818040 351 125ft 0kts
01-Sep-18 18:21 37.336062 -121.818040 351 125ft 0kts
01-Sep-18 18:22 37.336085 -121.818063 309 125ft 1kts
01-Sep-18 18:23 37.334724 -121.818868 143 125ft 10kts
01-Sep-18 18:24 37.332015 -121.816284 142 131ft 19kts
01-Sep-18 18:25 37.329980 -121.815357 47 131ft 6kts
01-Sep-18 18:26 37.330320 -121.814818 237 132ft 0kts
01-Sep-18 18:27 37.330320 -121.814818 237 132ft 0kts
01-Sep-18 18:28 37.330320 -121.814818 237 132ft 0kts
01-Sep-18 18:29 37.329890 -121.816218 291 132ft 9kts
01-Sep-18 18:30 37.340770 -121.826927 321 605ft 106kts
01-Sep-18 18:31 37.350605 -121.845400 236 1827ft 98kts
01-Sep-18 18:32 37.335571 -121.862109 204 2578ft 118kts
01-Sep-18 18:33 37.313845 -121.872373 226 3199ft 128kts
01-Sep-18 18:34 37.291517 -121.885338 198 4185ft 110kts
01-Sep-18 18:35 37.265719 -121.896985 202 4896ft 121kts
01-Sep-18 18:36 37.238989 -121.886007 157 5644ft 131kts
01-Sep-18 18:37 37.208404 -121.871546 159 6772ft 117kts
01-Sep-18 18:38 37.174643 -121.854932 158 6967ft 169kts
01-Sep-18 18:39 37.130273 -121.832956 158 6961ft 183kts
01-Sep-18 18:40 37.084346 -121.810439 158 6960ft 184kts
01-Sep-18 18:41 37.040905 -121.788915 158 6959ft 171kts
01-Sep-18 18:42 36.999414 -121.768360 158 6960ft 168kts
01-Sep-18 18:43 36.958308 -121.748006 158 6960ft 167kts
01-Sep-18 18:44 36.916894 -121.727542 158 6960ft 167kts
01-Sep-18 18:45 36.872069 -121.715643 165 6959ft 167kts
01-Sep-18 18:46 36.827135 -121.700767 165 6960ft 167kts
01-Sep-18 18:47 36.789464 -121.671613 132 6960ft 161kts
01-Sep-18 18:48 36.759932 -121.630695 132 6960ft 156kts
01-Sep-18 18:49 36.731118 -121.590736 132 6960ft 154kts
01-Sep-18 18:50 36.702838 -121.551518 131 6960ft 154kts
01-Sep-18 18:51 36.674516 -121.512243 131 6960ft 154kts
01-Sep-18 18:52 36.645957 -121.473028 133 6700ft 154kts
01-Sep-18 18:53 36.615691 -121.438180 140 6030ft 146kts
01-Sep-18 18:54 36.584168 -121.406519 130 5990ft 143kts
01-Sep-18 18:55 36.558067 -121.369128 130 5988ft 143kts
01-Sep-18 18:56 36.526581 -121.338609 150 5730ft 153kts
01-Sep-18 18:57 36.487125 -121.315086 157 5136ft 158kts
01-Sep-18 18:58 36.452468 -121.323691 240 4972ft 147kts
01-Sep-18 19:00 36.436828 -121.364775 277 4969ft 120kts
01-Sep-18 19:01 36.448736 -121.403470 292 4971ft 120kts
01-Sep-18 19:02 36.462289 -121.444314 292 4776ft 145kts
01-Sep-18 19:03 36.492155 -121.480190 325 4071ft 154kts
01-Sep-18 19:04 36.528738 -121.503543 335 3779ft 147kts
01-Sep-18 19:05 36.563970 -121.524565 322 3381ft 136kts
01-Sep-18 19:06 36.595424 -121.553465 324 2465ft 149kts
01-Sep-18 19:07 36.626701 -121.580507 329 1319ft 115kts
01-Sep-18 19:08 36.649723 -121.595554 330 526ft 90kts
01-Sep-18 19:09 36.663946 -121.606159 312 79ft 7kts
01-Sep-18 19:10 36.667321 -121.610620 150 79ft 13kts

Navigation Log

Ident Type
Flight plan parsing failed, navigation log unavailable